sensor_id;sensor_type;location;lat;lon;timestamp;pressure;altitude;pressure_sealevel;temperature;humidity
53659;BME280;41524;35.624;139.698;2023-03-13T00:00:17;101222.00;;;12.61;59.42
53659;BME280;41524;35.624;139.698;2023-03-13T00:05:15;101212.00;;;12.42;59.77
53659;BME280;41524;35.624;139.698;2023-03-13T00:10:11;101192.00;;;12.66;58.47
53659;BME280;41524;35.624;139.698;2023-03-13T00:15:15;101169.00;;;12.39;57.62
53659;BME280;41524;35.624;139.698;2023-03-13T00:20:16;101169.00;;;12.61;57.38
53659;BME280;41524;35.624;139.698;2023-03-13T00:25:15;101184.00;;;12.65;58.39
53659;BME280;41524;35.624;139.698;2023-03-13T00:30:11;101164.00;;;13.21;57.91
53659;BME280;41524;35.624;139.698;2023-03-13T00:35:12;101159.00;;;12.45;59.80
53659;BME280;41524;35.624;139.698;2023-03-13T00:40:12;101136.00;;;12.36;60.28
53659;BME280;41524;35.624;139.698;2023-03-13T00:45:11;101128.00;;;12.70;59.92
53659;BME280;41524;35.624;139.698;2023-03-13T00:50:16;101124.00;;;13.11;58.66
53659;BME280;41524;35.624;139.698;2023-03-13T00:55:24;101124.00;;;12.64;59.12
53659;BME280;41524;35.624;139.698;2023-03-13T01:00:17;101120.00;;;13.16;58.67
53659;BME280;41524;35.624;139.698;2023-03-13T01:05:12;101109.00;;;13.10;57.69
53659;BME280;41524;35.624;139.698;2023-03-13T01:10:11;101103.00;;;13.29;56.52
53659;BME280;41524;35.624;139.698;2023-03-13T01:15:16;101097.00;;;13.07;57.88
53659;BME280;41524;35.624;139.698;2023-03-13T01:20:13;101080.00;;;12.69;58.83
53659;BME280;41524;35.624;139.698;2023-03-13T01:25:21;101073.00;;;12.24;61.96
53659;BME280;41524;35.624;139.698;2023-03-13T01:30:12;101066.00;;;12.53;61.12
53659;BME280;41524;35.624;139.698;2023-03-13T01:35:11;101067.00;;;12.57;61.79
53659;BME280;41524;35.624;139.698;2023-03-13T01:40:12;101048.00;;;12.12;64.12
53659;BME280;41524;35.624;139.698;2023-03-13T01:46:24;101047.00;;;12.16;65.57
53659;BME280;41524;35.624;139.698;2023-03-13T01:50:15;101038.00;;;12.13;65.78
53659;BME280;41524;35.624;139.698;2023-03-13T01:55:17;101027.00;;;12.15;64.49
53659;BME280;41524;35.624;139.698;2023-03-13T02:00:22;101020.00;;;12.62;62.16
53659;BME280;41524;35.624;139.698;2023-03-13T02:05:23;101025.00;;;12.33;61.45
53659;BME280;41524;35.624;139.698;2023-03-13T02:10:13;101012.00;;;12.75;60.58
53659;BME280;41524;35.624;139.698;2023-03-13T02:15:16;101003.00;;;12.75;59.62
53659;BME280;41524;35.624;139.698;2023-03-13T02:20:12;101006.00;;;12.66;60.06
53659;BME280;41524;35.624;139.698;2023-03-13T02:25:15;101005.00;;;12.80;61.28
53659;BME280;41524;35.624;139.698;2023-03-13T02:30:19;100996.00;;;12.97;60.05
53659;BME280;41524;35.624;139.698;2023-03-13T02:35:13;100994.00;;;12.72;59.29
53659;BME280;41524;35.624;139.698;2023-03-13T02:40:13;100981.00;;;12.69;59.87
53659;BME280;41524;35.624;139.698;2023-03-13T02:45:14;100979.00;;;12.91;59.98
53659;BME280;41524;35.624;139.698;2023-03-13T02:50:16;100984.00;;;12.14;63.98
53659;BME280;41524;35.624;139.698;2023-03-13T02:55:20;100975.00;;;12.46;63.34
53659;BME280;41524;35.624;139.698;2023-03-13T03:00:16;100974.00;;;12.13;65.36
53659;BME280;41524;35.624;139.698;2023-03-13T03:05:19;100978.00;;;12.22;66.76
53659;BME280;41524;35.624;139.698;2023-03-13T03:10:16;101000.00;;;11.90;71.51
53659;BME280;41524;35.624;139.698;2023-03-13T03:15:11;100987.00;;;12.14;73.87
53659;BME280;41524;35.624;139.698;2023-03-13T03:20:11;100957.00;;;11.28;76.05
53659;BME280;41524;35.624;139.698;2023-03-13T03:25:15;100941.00;;;11.70;72.34
53659;BME280;41524;35.624;139.698;2023-03-13T03:30:17;100941.00;;;12.00;72.18
53659;BME280;41524;35.624;139.698;2023-03-13T03:35:18;100940.00;;;12.48;72.01
53659;BME280;41524;35.624;139.698;2023-03-13T03:40:15;100930.00;;;11.94;73.94
53659;BME280;41524;35.624;139.698;2023-03-13T03:45:15;100927.00;;;12.07;74.11
53659;BME280;41524;35.624;139.698;2023-03-13T03:50:11;100922.00;;;12.04;74.65
53659;BME280;41524;35.624;139.698;2023-03-13T03:55:16;100913.00;;;11.90;74.48
53659;BME280;41524;35.624;139.698;2023-03-13T04:00:12;100898.00;;;12.46;73.78
53659;BME280;41524;35.624;139.698;2023-03-13T04:05:12;100874.00;;;12.79;72.00
53659;BME280;41524;35.624;139.698;2023-03-13T04:10:12;100848.00;;;12.62;71.85
53659;BME280;41524;35.624;139.698;2023-03-13T04:15:24;100838.00;;;13.87;66.93
53659;BME280;41524;35.624;139.698;2023-03-13T04:20:12;100837.00;;;12.79;67.63
53659;BME280;41524;35.624;139.698;2023-03-13T04:25:12;100811.00;;;13.38;65.50
53659;BME280;41524;35.624;139.698;2023-03-13T04:30:11;100748.00;;;12.03;69.46
53659;BME280;41524;35.624;139.698;2023-03-13T04:40:11;100722.00;;;12.17;72.00
53659;BME280;41524;35.624;139.698;2023-03-13T04:45:16;100739.00;;;11.21;73.40
53659;BME280;41524;35.624;139.698;2023-03-13T04:50:11;100754.00;;;12.24;71.96
53659;BME280;41524;35.624;139.698;2023-03-13T04:55:11;100777.00;;;12.19;70.04
53659;BME280;41524;35.624;139.698;2023-03-13T05:00:12;100749.00;;;11.73;68.58
53659;BME280;41524;35.624;139.698;2023-03-13T05:05:10;100725.00;;;11.85;67.60
53659;BME280;41524;35.624;139.698;2023-03-13T05:10:12;100730.00;;;13.52;63.63
53659;BME280;41524;35.624;139.698;2023-03-13T05:15:16;100750.00;;;12.14;67.69
53659;BME280;41524;35.624;139.698;2023-03-13T05:20:11;100696.00;;;11.66;68.05
53659;BME280;41524;35.624;139.698;2023-03-13T05:25:16;100739.00;;;11.25;70.57
53659;BME280;41524;35.624;139.698;2023-03-13T05:30:21;100785.00;;;11.05;71.49
53659;BME280;41524;35.624;139.698;2023-03-13T05:35:10;100812.00;;;11.58;69.32
53659;BME280;41524;35.624;139.698;2023-03-13T05:40:21;100809.00;;;11.86;68.43
53659;BME280;41524;35.624;139.698;2023-03-13T05:45:15;100794.00;;;11.40;69.35
53659;BME280;41524;35.624;139.698;2023-03-13T05:50:11;100784.00;;;13.06;64.70
53659;BME280;41524;35.624;139.698;2023-03-13T05:55:10;100781.00;;;11.39;66.14
53659;BME280;41524;35.624;139.698;2023-03-13T06:00:12;100789.00;;;12.08;65.34
53659;BME280;41524;35.624;139.698;2023-03-13T06:05:16;100770.00;;;12.41;64.93
53659;BME280;41524;35.624;139.698;2023-03-13T06:10:21;100767.00;;;11.81;65.76
53659;BME280;41524;35.624;139.698;2023-03-13T06:15:11;100786.00;;;12.69;64.04
53659;BME280;41524;35.624;139.698;2023-03-13T06:20:11;100782.00;;;12.86;64.30
53659;BME280;41524;35.624;139.698;2023-03-13T06:25:16;100784.00;;;12.51;64.56
53659;BME280;41524;35.624;139.698;2023-03-13T06:30:14;100797.00;;;13.29;62.34
53659;BME280;41524;35.624;139.698;2023-03-13T06:35:15;100796.00;;;13.94;60.79
53659;BME280;41524;35.624;139.698;2023-03-13T06:40:12;100792.00;;;15.02;58.20
53659;BME280;41524;35.624;139.698;2023-03-13T06:45:12;100784.00;;;13.27;61.80
53659;BME280;41524;35.624;139.698;2023-03-13T06:50:11;100798.00;;;14.81;60.58
53659;BME280;41524;35.624;139.698;2023-03-13T06:55:15;100804.00;;;14.67;60.92
53659;BME280;41524;35.624;139.698;2023-03-13T07:00:16;100808.00;;;15.52;57.31
53659;BME280;41524;35.624;139.698;2023-03-13T07:05:12;100809.00;;;13.61;60.87
53659;BME280;41524;35.624;139.698;2023-03-13T07:10:11;100797.00;;;13.22;61.70
53659;BME280;41524;35.624;139.698;2023-03-13T07:15:16;100802.00;;;13.70;60.79
53659;BME280;41524;35.624;139.698;2023-03-13T07:20:18;100806.00;;;12.95;62.91
53659;BME280;41524;35.624;139.698;2023-03-13T07:25:12;100824.00;;;13.08;62.55
53659;BME280;41524;35.624;139.698;2023-03-13T07:30:11;100826.00;;;13.74;60.08
53659;BME280;41524;35.624;139.698;2023-03-13T07:35:13;100833.00;;;14.23;59.39
53659;BME280;41524;35.624;139.698;2023-03-13T07:40:12;100833.00;;;13.04;62.22
53659;BME280;41524;35.624;139.698;2023-03-13T07:45:19;100840.00;;;13.42;62.35
53659;BME280;41524;35.624;139.698;2023-03-13T07:50:16;100842.00;;;13.96;60.50
53659;BME280;41524;35.624;139.698;2023-03-13T07:55:10;100852.00;;;14.65;59.04
53659;BME280;41524;35.624;139.698;2023-03-13T08:00:20;100850.00;;;13.96;60.22
53659;BME280;41524;35.624;139.698;2023-03-13T08:05:11;100862.00;;;13.63;60.96
53659;BME280;41524;35.624;139.698;2023-03-13T08:10:11;100861.00;;;13.46;62.02
53659;BME280;41524;35.624;139.698;2023-03-13T08:15:16;100872.00;;;14.36;59.87
53659;BME280;41524;35.624;139.698;2023-03-13T08:20:12;100877.00;;;13.30;61.78
53659;BME280;41524;35.624;139.698;2023-03-13T08:25:11;100882.00;;;13.56;61.52
53659;BME280;41524;35.624;139.698;2023-03-13T08:30:12;100893.00;;;13.70;61.52
53659;BME280;41524;35.624;139.698;2023-03-13T08:35:12;100899.00;;;14.04;60.54
53659;BME280;41524;35.624;139.698;2023-03-13T08:40:12;100909.00;;;14.74;57.22
53659;BME280;41524;35.624;139.698;2023-03-13T08:45:22;100918.00;;;13.62;59.68
53659;BME280;41524;35.624;139.698;2023-03-13T08:50:12;100924.00;;;13.79;58.80
53659;BME280;41524;35.624;139.698;2023-03-13T08:55:16;100931.00;;;14.23;58.21
53659;BME280;41524;35.624;139.698;2023-03-13T09:05:10;100954.00;;;15.17;56.34
53659;BME280;41524;35.624;139.698;2023-03-13T09:10:16;100963.00;;;12.98;59.24
53659;BME280;41524;35.624;139.698;2023-03-13T09:15:11;100965.00;;;12.41;57.69
53659;BME280;41524;35.624;139.698;2023-03-13T09:20:11;100969.00;;;13.26;55.42
53659;BME280;41524;35.624;139.698;2023-03-13T09:25:11;100975.00;;;12.80;55.27
53659;BME280;41524;35.624;139.698;2023-03-13T09:30:12;100980.00;;;13.39;54.76
53659;BME280;41524;35.624;139.698;2023-03-13T09:35:15;100993.00;;;12.68;55.69
53659;BME280;41524;35.624;139.698;2023-03-13T09:40:20;100994.00;;;12.62;54.60
53659;BME280;41524;35.624;139.698;2023-03-13T09:45:15;101003.00;;;12.47;55.04
53659;BME280;41524;35.624;139.698;2023-03-13T09:50:20;101001.00;;;12.58;54.39
53659;BME280;41524;35.624;139.698;2023-03-13T09:55:16;101017.00;;;12.49;51.82
53659;BME280;41524;35.624;139.698;2023-03-13T10:00:21;101027.00;;;12.97;47.52
53659;BME280;41524;35.624;139.698;2023-03-13T10:05:19;101033.00;;;12.51;46.69
53659;BME280;41524;35.624;139.698;2023-03-13T10:15:31;101049.00;;;12.26;42.98
53659;BME280;41524;35.624;139.698;2023-03-13T10:20:22;101056.00;;;11.56;42.70
53659;BME280;41524;35.624;139.698;2023-03-13T10:25:23;101074.00;;;12.52;40.13
53659;BME280;41524;35.624;139.698;2023-03-13T10:30:22;101077.00;;;11.81;41.05
53659;BME280;41524;35.624;139.698;2023-03-13T10:35:13;101074.00;;;11.58;40.92
53659;BME280;41524;35.624;139.698;2023-03-13T10:40:21;101082.00;;;11.62;40.80
53659;BME280;41524;35.624;139.698;2023-03-13T10:45:15;101096.00;;;10.63;42.17
53659;BME280;41524;35.624;139.698;2023-03-13T10:50:18;101101.00;;;11.03;41.29
53659;BME280;41524;35.624;139.698;2023-03-13T10:55:24;101105.00;;;10.98;42.69
53659;BME280;41524;35.624;139.698;2023-03-13T11:00:32;101102.00;;;10.77;43.08
53659;BME280;41524;35.624;139.698;2023-03-13T11:05:37;101121.00;;;10.19;44.33
53659;BME280;41524;35.624;139.698;2023-03-13T11:10:18;101132.00;;;10.28;44.84
53659;BME280;41524;35.624;139.698;2023-03-13T11:15:18;101145.00;;;10.18;45.91
53659;BME280;41524;35.624;139.698;2023-03-13T11:20:21;101147.00;;;9.55;46.99
53659;BME280;41524;35.624;139.698;2023-03-13T11:25:19;101159.00;;;9.97;46.54
53659;BME280;41524;35.624;139.698;2023-03-13T11:30:30;101164.00;;;10.57;45.27
53659;BME280;41524;35.624;139.698;2023-03-13T11:35:21;101173.00;;;10.20;45.53
53659;BME280;41524;35.624;139.698;2023-03-13T11:40:20;101185.00;;;10.01;45.33
53659;BME280;41524;35.624;139.698;2023-03-13T11:45:32;101182.00;;;10.50;44.45
53659;BME280;41524;35.624;139.698;2023-03-13T11:50:18;101189.00;;;10.18;44.47
53659;BME280;41524;35.624;139.698;2023-03-13T11:55:24;101200.00;;;9.74;44.43
53659;BME280;41524;35.624;139.698;2023-03-13T12:00:22;101205.00;;;10.20;44.09
53659;BME280;41524;35.624;139.698;2023-03-13T12:05:24;101215.00;;;9.69;43.93
53659;BME280;41524;35.624;139.698;2023-03-13T12:10:18;101220.00;;;9.81;43.14
53659;BME280;41524;35.624;139.698;2023-03-13T12:15:27;101229.00;;;9.55;42.51
53659;BME280;41524;35.624;139.698;2023-03-13T12:20:16;101232.00;;;9.28;42.61
53659;BME280;41524;35.624;139.698;2023-03-13T12:25:16;101231.00;;;9.71;42.04
53659;BME280;41524;35.624;139.698;2023-03-13T12:30:21;101235.00;;;9.74;41.53
53659;BME280;41524;35.624;139.698;2023-03-13T12:35:21;101241.00;;;9.41;42.06
53659;BME280;41524;35.624;139.698;2023-03-13T12:40:24;101241.00;;;10.01;41.06
53659;BME280;41524;35.624;139.698;2023-03-13T12:45:17;101240.00;;;9.32;41.86
53659;BME280;41524;35.624;139.698;2023-03-13T12:50:29;101244.00;;;9.59;41.86
53659;BME280;41524;35.624;139.698;2023-03-13T12:55:31;101255.00;;;9.07;42.64
53659;BME280;41524;35.624;139.698;2023-03-13T13:05:29;101261.00;;;9.50;41.52
53659;BME280;41524;35.624;139.698;2023-03-13T13:10:22;101270.00;;;9.87;41.04
53659;BME280;41524;35.624;139.698;2023-03-13T13:15:21;101272.00;;;8.77;42.21
53659;BME280;41524;35.624;139.698;2023-03-13T13:20:45;101269.00;;;8.19;43.05
53659;BME280;41524;35.624;139.698;2023-03-13T13:25:34;101270.00;;;8.85;42.96
53659;BME280;41524;35.624;139.698;2023-03-13T13:30:30;101274.00;;;8.62;43.53
53659;BME280;41524;35.624;139.698;2023-03-13T13:35:26;101279.00;;;9.38;41.14
53659;BME280;41524;35.624;139.698;2023-03-13T13:40:22;101277.00;;;9.78;40.85
53659;BME280;41524;35.624;139.698;2023-03-13T13:45:58;101290.00;;;9.56;41.83
53659;BME280;41524;35.624;139.698;2023-03-13T13:50:18;101290.00;;;9.17;42.74
53659;BME280;41524;35.624;139.698;2023-03-13T13:55:43;101300.00;;;9.98;43.73
53659;BME280;41524;35.624;139.698;2023-03-13T14:00:19;101308.00;;;9.52;41.42
53659;BME280;41524;35.624;139.698;2023-03-13T14:05:18;101306.00;;;8.22;43.20
53659;BME280;41524;35.624;139.698;2023-03-13T14:10:41;101310.00;;;9.15;42.88
53659;BME280;41524;35.624;139.698;2023-03-13T14:15:16;101316.00;;;9.00;42.38
53659;BME280;41524;35.624;139.698;2023-03-13T14:20:28;101321.00;;;9.25;43.30
53659;BME280;41524;35.624;139.698;2023-03-13T14:25:10;101333.00;;;9.32;42.65
53659;BME280;41524;35.624;139.698;2023-03-13T14:30:13;101332.00;;;10.27;40.99
53659;BME280;41524;35.624;139.698;2023-03-13T14:35:18;101334.00;;;9.21;41.80
53659;BME280;41524;35.624;139.698;2023-03-13T14:40:24;101331.00;;;9.01;41.70
53659;BME280;41524;35.624;139.698;2023-03-13T14:45:25;101341.00;;;9.47;39.77
53659;BME280;41524;35.624;139.698;2023-03-13T14:50:13;101356.00;;;8.86;38.79
53659;BME280;41524;35.624;139.698;2023-03-13T14:55:32;101369.00;;;8.64;36.68
53659;BME280;41524;35.624;139.698;2023-03-13T15:00:36;101374.00;;;8.54;36.73
53659;BME280;41524;35.624;139.698;2023-03-13T15:05:32;101369.00;;;8.54;35.49
53659;BME280;41524;35.624;139.698;2023-03-13T15:10:25;101372.00;;;8.41;35.53
53659;BME280;41524;35.624;139.698;2023-03-13T15:15:21;101375.00;;;8.90;35.10
53659;BME280;41524;35.624;139.698;2023-03-13T15:20:13;101379.00;;;8.73;35.29
53659;BME280;41524;35.624;139.698;2023-03-13T15:25:20;101386.00;;;8.97;35.56
53659;BME280;41524;35.624;139.698;2023-03-13T15:30:17;101401.00;;;8.72;35.96
53659;BME280;41524;35.624;139.698;2023-03-13T15:35:23;101400.00;;;9.39;35.76
53659;BME280;41524;35.624;139.698;2023-03-13T15:40:16;101398.00;;;8.82;35.89
53659;BME280;41524;35.624;139.698;2023-03-13T15:45:13;101398.00;;;9.43;35.58
53659;BME280;41524;35.624;139.698;2023-03-13T15:50:13;101417.00;;;9.41;35.76
53659;BME280;41524;35.624;139.698;2023-03-13T15:55:16;101433.00;;;9.38;36.02
53659;BME280;41524;35.624;139.698;2023-03-13T16:00:24;101446.00;;;8.66;36.75
53659;BME280;41524;35.624;139.698;2023-03-13T16:05:11;101455.00;;;8.89;36.48
53659;BME280;41524;35.624;139.698;2023-03-13T16:10:18;101466.00;;;7.87;37.34
53659;BME280;41524;35.624;139.698;2023-03-13T16:15:14;101469.00;;;8.57;36.47
53659;BME280;41524;35.624;139.698;2023-03-13T16:20:15;101465.00;;;8.64;36.43
53659;BME280;41524;35.624;139.698;2023-03-13T16:25:17;101473.00;;;8.45;35.87
53659;BME280;41524;35.624;139.698;2023-03-13T16:30:17;101480.00;;;8.76;35.69
53659;BME280;41524;35.624;139.698;2023-03-13T16:35:11;101478.00;;;9.26;35.53
53659;BME280;41524;35.624;139.698;2023-03-13T16:40:17;101478.00;;;9.45;35.40
53659;BME280;41524;35.624;139.698;2023-03-13T16:45:19;101486.00;;;7.93;36.76
53659;BME280;41524;35.624;139.698;2023-03-13T16:50:19;101493.00;;;8.48;36.29
53659;BME280;41524;35.624;139.698;2023-03-13T16:55:12;101494.00;;;8.85;35.84
53659;BME280;41524;35.624;139.698;2023-03-13T17:00:15;101494.00;;;7.92;36.40
53659;BME280;41524;35.624;139.698;2023-03-13T17:05:12;101506.00;;;8.48;36.10
53659;BME280;41524;35.624;139.698;2023-03-13T17:10:18;101516.00;;;9.32;35.62
53659;BME280;41524;35.624;139.698;2023-03-13T17:15:11;101524.00;;;9.46;34.92
53659;BME280;41524;35.624;139.698;2023-03-13T17:20:21;101524.00;;;8.76;35.78
53659;BME280;41524;35.624;139.698;2023-03-13T17:25:12;101529.00;;;8.63;35.77
53659;BME280;41524;35.624;139.698;2023-03-13T17:30:20;101533.00;;;8.55;35.91
53659;BME280;41524;35.624;139.698;2023-03-13T17:35:11;101524.00;;;8.45;36.15
53659;BME280;41524;35.624;139.698;2023-03-13T17:40:16;101530.00;;;9.07;35.32
53659;BME280;41524;35.624;139.698;2023-03-13T17:45:13;101528.00;;;8.59;35.76
53659;BME280;41524;35.624;139.698;2023-03-13T17:50:16;101527.00;;;8.76;35.96
53659;BME280;41524;35.624;139.698;2023-03-13T17:55:11;101534.00;;;9.11;35.14
53659;BME280;41524;35.624;139.698;2023-03-13T18:00:21;101537.00;;;9.77;34.87
53659;BME280;41524;35.624;139.698;2023-03-13T18:05:11;101544.00;;;9.46;35.71
53659;BME280;41524;35.624;139.698;2023-03-13T18:10:17;101551.00;;;9.03;35.83
53659;BME280;41524;35.624;139.698;2023-03-13T18:15:12;101563.00;;;9.64;35.49
53659;BME280;41524;35.624;139.698;2023-03-13T18:20:16;101577.00;;;8.78;36.05
53659;BME280;41524;35.624;139.698;2023-03-13T18:25:16;101578.00;;;9.03;35.43
53659;BME280;41524;35.624;139.698;2023-03-13T18:30:17;101580.00;;;9.26;34.74
53659;BME280;41524;35.624;139.698;2023-03-13T18:35:11;101583.00;;;9.57;34.66
53659;BME280;41524;35.624;139.698;2023-03-13T18:40:17;101591.00;;;9.20;35.11
53659;BME280;41524;35.624;139.698;2023-03-13T18:45:17;101598.00;;;9.05;36.53
53659;BME280;41524;35.624;139.698;2023-03-13T18:50:24;101607.00;;;8.80;37.49
53659;BME280;41524;35.624;139.698;2023-03-13T18:55:12;101605.00;;;9.07;37.59
53659;BME280;41524;35.624;139.698;2023-03-13T19:00:18;101619.00;;;8.07;38.36
53659;BME280;41524;35.624;139.698;2023-03-13T19:05:12;101619.00;;;8.92;38.93
53659;BME280;41524;35.624;139.698;2023-03-13T19:10:21;101630.00;;;9.41;38.11
53659;BME280;41524;35.624;139.698;2023-03-13T19:15:12;101642.00;;;8.54;37.77
53659;BME280;41524;35.624;139.698;2023-03-13T19:20:17;101655.00;;;8.12;39.03
53659;BME280;41524;35.624;139.698;2023-03-13T19:25:18;101671.00;;;8.86;40.08
53659;BME280;41524;35.624;139.698;2023-03-13T19:30:20;101678.00;;;8.48;37.67
53659;BME280;41524;35.624;139.698;2023-03-13T19:35:11;101678.00;;;8.32;37.51
53659;BME280;41524;35.624;139.698;2023-03-13T19:40:16;101678.00;;;9.59;38.51
53659;BME280;41524;35.624;139.698;2023-03-13T19:45:12;101681.00;;;9.30;39.68
53659;BME280;41524;35.624;139.698;2023-03-13T19:50:19;101697.00;;;8.35;41.33
53659;BME280;41524;35.624;139.698;2023-03-13T19:55:11;101701.00;;;9.25;40.83
53659;BME280;41524;35.624;139.698;2023-03-13T20:00:19;101710.00;;;6.22;44.98
53659;BME280;41524;35.624;139.698;2023-03-13T20:05:11;101722.00;;;8.67;41.80
53659;BME280;41524;35.624;139.698;2023-03-13T20:10:13;101726.00;;;8.81;41.88
53659;BME280;41524;35.624;139.698;2023-03-13T20:15:12;101743.00;;;8.44;41.86
53659;BME280;41524;35.624;139.698;2023-03-13T20:20:12;101748.00;;;8.32;42.14
53659;BME280;41524;35.624;139.698;2023-03-13T20:25:12;101763.00;;;8.55;41.36
53659;BME280;41524;35.624;139.698;2023-03-13T20:30:13;101785.00;;;7.86;43.06
53659;BME280;41524;35.624;139.698;2023-03-13T20:35:13;101795.00;;;7.89;43.61
53659;BME280;41524;35.624;139.698;2023-03-13T20:40:12;101804.00;;;8.50;42.35
53659;BME280;41524;35.624;139.698;2023-03-13T20:45:11;101825.00;;;8.86;40.29
53659;BME280;41524;35.624;139.698;2023-03-13T20:50:15;101838.00;;;8.45;39.97
53659;BME280;41524;35.624;139.698;2023-03-13T20:55:16;101843.00;;;7.43;43.11
53659;BME280;41524;35.624;139.698;2023-03-13T21:00:12;101865.00;;;7.02;45.17
53659;BME280;41524;35.624;139.698;2023-03-13T21:05:10;101864.00;;;7.67;44.18
53659;BME280;41524;35.624;139.698;2023-03-13T21:10:12;101879.00;;;7.53;44.13
53659;BME280;41524;35.624;139.698;2023-03-13T21:15:11;101884.00;;;8.21;42.88
53659;BME280;41524;35.624;139.698;2023-03-13T21:20:11;101892.00;;;7.82;43.60
53659;BME280;41524;35.624;139.698;2023-03-13T21:25:18;101904.00;;;7.05;46.81
53659;BME280;41524;35.624;139.698;2023-03-13T21:30:21;101907.00;;;7.99;45.67
53659;BME280;41524;35.624;139.698;2023-03-13T21:35:13;101921.00;;;7.57;46.22
53659;BME280;41524;35.624;139.698;2023-03-13T21:40:14;101927.00;;;7.62;46.12
53659;BME280;41524;35.624;139.698;2023-03-13T21:45:11;101927.00;;;7.63;46.34
53659;BME280;41524;35.624;139.698;2023-03-13T21:50:13;101934.00;;;5.68;49.91
53659;BME280;41524;35.624;139.698;2023-03-13T21:55:18;101942.00;;;6.15;47.98
53659;BME280;41524;35.624;139.698;2023-03-13T22:00:18;101949.00;;;6.32;49.29
53659;BME280;41524;35.624;139.698;2023-03-13T22:05:11;101951.00;;;7.69;46.86
53659;BME280;41524;35.624;139.698;2023-03-13T22:10:15;101952.00;;;7.35;46.63
53659;BME280;41524;35.624;139.698;2023-03-13T22:15:16;101950.00;;;7.49;47.11
53659;BME280;41524;35.624;139.698;2023-03-13T22:20:18;101953.00;;;7.13;47.63
53659;BME280;41524;35.624;139.698;2023-03-13T22:25:12;101972.00;;;6.31;49.50
53659;BME280;41524;35.624;139.698;2023-03-13T22:30:11;101985.00;;;7.89;46.87
53659;BME280;41524;35.624;139.698;2023-03-13T22:35:13;101999.00;;;6.23;48.01
53659;BME280;41524;35.624;139.698;2023-03-13T22:40:11;101983.00;;;7.69;46.09
53659;BME280;41524;35.624;139.698;2023-03-13T22:45:12;101987.00;;;7.78;47.60
53659;BME280;41524;35.624;139.698;2023-03-13T22:50:18;101997.00;;;8.32;45.34
53659;BME280;41524;35.624;139.698;2023-03-13T22:55:13;101986.00;;;8.69;44.49
53659;BME280;41524;35.624;139.698;2023-03-13T23:00:18;102007.00;;;5.52;48.80
53659;BME280;41524;35.624;139.698;2023-03-13T23:05:15;102009.00;;;8.77;45.50
53659;BME280;41524;35.624;139.698;2023-03-13T23:10:17;102011.00;;;9.07;44.80
53659;BME280;41524;35.624;139.698;2023-03-13T23:15:11;102018.00;;;5.17;53.11
53659;BME280;41524;35.624;139.698;2023-03-13T23:20:13;102015.00;;;5.68;50.94
53659;BME280;41524;35.624;139.698;2023-03-13T23:25:12;102014.00;;;9.04;45.86
53659;BME280;41524;35.624;139.698;2023-03-13T23:30:13;102026.00;;;7.35;45.44
53659;BME280;41524;35.624;139.698;2023-03-13T23:35:13;102026.00;;;9.08;44.38
53659;BME280;41524;35.624;139.698;2023-03-13T23:40:11;102040.00;;;9.20;43.91
53659;BME280;41524;35.624;139.698;2023-03-13T23:45:11;102048.00;;;8.74;44.35
53659;BME280;41524;35.624;139.698;2023-03-13T23:50:16;102048.00;;;8.61;46.07
53659;BME280;41524;35.624;139.698;2023-03-13T23:55:16;102040.00;;;8.74;45.43
